Sea Drift — WDC2818 — position and weather

sailwx.info

Track history (hours):
 
Tides and Currents Weather Stations Pressure Air Temp Water Temp Dewpoint Dewpoint Depression Visibility Wind Speed Wind Dir Waves Ship Positions

Sea Drift

Owner: Marquette Transportation Company Gulf-Inland, LLC, Jefferson, LA. More information available from US FCC via Universal Licensing System and Coast Guard Vessel Documentation Center.

Last reported at 2015-Jun-29 21:32 UTC. Time now 2015-Jun-30 03:28 UTC.
Position N 30°21' W 091°10'.

Length 23 m; draft 3 m.

Type: Towing. MMSI: 366998080.

Date/timePositionNaut miles runAvg speedWind from/ knotsBaromVisibWave heightAir tempDewpointWater temp
2015-Jun-29 21:32N 30°21' W 091°10'4 4.0
2015-Jun-29 20:33N 30°23' W 091°14'4 3.5
2015-Jun-29 19:33N 30°26' W 091°12'1 0.7
2015-Jun-29 18:28N 30°26' W 091°13'2 2.4
2015-Jun-29 17:34N 30°26' W 091°15'4 4.2
2015-Jun-29 16:33N 30°24' W 091°19'  
2015-Jun-25 04:30N 29°30' W 094°52'7 7.0
2015-Jun-25 03:33N 29°35' W 094°56'7 7.4
2015-Jun-25 02:33N 29°42' W 095°00'6 6.0
2015-Jun-25 01:33N 29°47' W 095°05'1 0.8
2015-Jun-25 00:29N 29°48' W 095°04'0 0.2
2015-Jun-24 23:29N 29°47' W 095°04'0 0.1
2015-Jun-24 22:29N 29°47' W 095°04'2 1.7
2015-Jun-24 21:06N 29°45' W 095°06'2 3.5
2015-Jun-24 20:32N 29°47' W 095°04'0 0.3
2015-Jun-24 19:32N 29°47' W 095°04'2 0.6
2015-Jun-24 16:20N 29°46' W 095°05'5 6.5
2015-Jun-24 15:33N 29°42' W 095°01'7 6.9
2015-Jun-24 14:33N 29°36' W 094°57'8 7.6
2015-Jun-24 13:33N 29°30' W 094°52'6 0.3
2015-Jun-23 20:32N 29°25' W 094°50'8 7.8
2015-Jun-23 19:32N 29°32' W 094°54'3 7.7
2015-Jun-23 19:06N 29°35' W 094°56'5 0.1
2015-Jun-22 05:22N 29°30' W 094°53'5 6.0
2015-Jun-22 04:33N 29°34' W 094°56'6 5.9
2015-Jun-22 03:33N 29°40' W 094°58'6 6.2
2015-Jun-22 02:33N 29°44' W 095°03'3 3.2
2015-Jun-22 01:33N 29°47' W 095°04'0 0.1
2015-Jun-22 00:30N 29°47' W 095°04'4 4.0
2015-Jun-21 23:33N 29°44' W 095°02'5 5.0
2015-Jun-21 22:33N 29°40' W 094°58'6 5.9
2015-Jun-21 21:33N 29°35' W 094°56'6 6.0
2015-Jun-21 20:31N 29°29' W 094°52'1 0.0
2015-Jun-20 08:15N 29°30' W 094°52'4 5.2
2015-Jun-20 07:33N 29°33' W 094°55'6 5.8
2015-Jun-20 06:33N 29°38' W 094°58'6 5.7
2015-Jun-20 05:33N 29°43' W 095°01'5 4.6
2015-Jun-20 04:32N 29°46' W 095°05'1 0.5
2015-Jun-20 03:28N 29°47' W 095°04'0 0.0
2015-Jun-20 02:21N 29°47' W 095°04'0 0.5
2015-Jun-20 01:33N 29°47' W 095°04'1 0.5
2015-Jun-20 00:33N 29°47' W 095°05'0 0.1
2015-Jun-19 23:06N 29°47' W 095°05'0 0.0
2015-Jun-19 22:22N 29°47' W 095°05'  
Track history (hours):
 
Tides and Currents Weather Stations Pressure Air Temp Water Temp Dewpoint Dewpoint Depression Visibility Wind Speed Wind Dir Waves Ship Positions

Sea Drift

Owner: Marquette Transportation Company Gulf-Inland, LLC, Jefferson, LA. More information available from US FCC via Universal Licensing System and Coast Guard Vessel Documentation Center.

Last reported at 2015-Jun-29 21:32 UTC. Time now 2015-Jun-30 03:28 UTC.
Position N 30°21' W 091°10'.

Length 23 m; draft 3 m.

Type: Towing. MMSI: 366998080.

Date/timePositionNaut miles runAvg speedWind from/ knotsBaromVisibWave heightAir tempDewpointWater temp
2015-Jun-29 21:32N 30°21' W 091°10'4 4.0
2015-Jun-29 20:33N 30°23' W 091°14'4 3.5
2015-Jun-29 19:33N 30°26' W 091°12'1 0.7
2015-Jun-29 18:28N 30°26' W 091°13'2 2.4
2015-Jun-29 17:34N 30°26' W 091°15'4 4.2
2015-Jun-29 16:33N 30°24' W 091°19'  
2015-Jun-25 04:30N 29°30' W 094°52'7 7.0
2015-Jun-25 03:33N 29°35' W 094°56'7 7.4
2015-Jun-25 02:33N 29°42' W 095°00'6 6.0
2015-Jun-25 01:33N 29°47' W 095°05'1 0.8
2015-Jun-25 00:29N 29°48' W 095°04'0 0.2
2015-Jun-24 23:29N 29°47' W 095°04'0 0.1
2015-Jun-24 22:29N 29°47' W 095°04'2 1.7
2015-Jun-24 21:06N 29°45' W 095°06'2 3.5
2015-Jun-24 20:32N 29°47' W 095°04'0 0.3
2015-Jun-24 19:32N 29°47' W 095°04'2 0.6
2015-Jun-24 16:20N 29°46' W 095°05'5 6.5
2015-Jun-24 15:33N 29°42' W 095°01'7 6.9
2015-Jun-24 14:33N 29°36' W 094°57'8 7.6
2015-Jun-24 13:33N 29°30' W 094°52'6 0.3
2015-Jun-23 20:32N 29°25' W 094°50'8 7.8
2015-Jun-23 19:32N 29°32' W 094°54'3 7.7
2015-Jun-23 19:06N 29°35' W 094°56'5 0.1
2015-Jun-22 05:22N 29°30' W 094°53'5 6.0
2015-Jun-22 04:33N 29°34' W 094°56'6 5.9
2015-Jun-22 03:33N 29°40' W 094°58'6 6.2
2015-Jun-22 02:33N 29°44' W 095°03'3 3.2
2015-Jun-22 01:33N 29°47' W 095°04'0 0.1
2015-Jun-22 00:30N 29°47' W 095°04'4 4.0
2015-Jun-21 23:33N 29°44' W 095°02'5 5.0
2015-Jun-21 22:33N 29°40' W 094°58'6 5.9
2015-Jun-21 21:33N 29°35' W 094°56'6 6.0
2015-Jun-21 20:31N 29°29' W 094°52'1 0.0
2015-Jun-20 08:15N 29°30' W 094°52'4 5.2
2015-Jun-20 07:33N 29°33' W 094°55'6 5.8
2015-Jun-20 06:33N 29°38' W 094°58'6 5.7
2015-Jun-20 05:33N 29°43' W 095°01'5 4.6
2015-Jun-20 04:32N 29°46' W 095°05'1 0.5
2015-Jun-20 03:28N 29°47' W 095°04'0 0.0
2015-Jun-20 02:21N 29°47' W 095°04'0 0.5
2015-Jun-20 01:33N 29°47' W 095°04'1 0.5
2015-Jun-20 00:33N 29°47' W 095°05'0 0.1
2015-Jun-19 23:06N 29°47' W 095°05'0 0.0
2015-Jun-19 22:22N 29°47' W 095°05'  

Dump ship's entire track history